sensor_id;sensor_type;location;lat;lon;timestamp;temperature;humidity
23114;DHT22;11726;50.122;8.832;2022-11-15T00:01:59;9.10;99.90
23114;DHT22;11726;50.122;8.832;2022-11-15T00:04:25;9.00;99.90
23114;DHT22;11726;50.122;8.832;2022-11-15T00:06:52;9.00;99.90
23114;DHT22;11726;50.122;8.832;2022-11-15T00:09:18;9.00;99.90
23114;DHT22;11726;50.122;8.832;2022-11-15T00:11:45;8.90;99.90
23114;DHT22;11726;50.122;8.832;2022-11-15T00:14:11;8.90;99.90
23114;DHT22;11726;50.122;8.832;2022-11-15T00:16:38;8.90;99.90
23114;DHT22;11726;50.122;8.832;2022-11-15T00:19:04;8.80;99.90
23114;DHT22;11726;50.122;8.832;2022-11-15T00:21:31;8.90;99.90
23114;DHT22;11726;50.122;8.832;2022-11-15T00:23:58;8.80;99.90
23114;DHT22;11726;50.122;8.832;2022-11-15T00:26:24;8.80;99.90
23114;DHT22;11726;50.122;8.832;2022-11-15T00:28:54;8.80;99.90
23114;DHT22;11726;50.122;8.832;2022-11-15T00:31:20;8.90;99.90
23114;DHT22;11726;50.122;8.832;2022-11-15T00:33:47;8.90;99.90
23114;DHT22;11726;50.122;8.832;2022-11-15T00:36:13;8.90;99.90
23114;DHT22;11726;50.122;8.832;2022-11-15T00:38:40;8.80;99.90
23114;DHT22;11726;50.122;8.832;2022-11-15T00:41:07;8.80;99.90
23114;DHT22;11726;50.122;8.832;2022-11-15T00:43:35;8.80;99.90
23114;DHT22;11726;50.122;8.832;2022-11-15T00:46:02;8.80;99.90
23114;DHT22;11726;50.122;8.832;2022-11-15T00:48:29;8.80;99.90
23114;DHT22;11726;50.122;8.832;2022-11-15T00:50:55;8.70;99.90
23114;DHT22;11726;50.122;8.832;2022-11-15T00:53:22;8.70;99.90
23114;DHT22;11726;50.122;8.832;2022-11-15T00:55:48;8.70;99.90
23114;DHT22;11726;50.122;8.832;2022-11-15T00:58:15;8.70;99.90
23114;DHT22;11726;50.122;8.832;2022-11-15T01:00:41;8.70;99.90
23114;DHT22;11726;50.122;8.832;2022-11-15T01:03:08;8.70;99.90
23114;DHT22;11726;50.122;8.832;2022-11-15T01:05:36;8.60;99.90
23114;DHT22;11726;50.122;8.832;2022-11-15T01:08:03;8.60;99.90
23114;DHT22;11726;50.122;8.832;2022-11-15T01:10:30;8.60;99.90
23114;DHT22;11726;50.122;8.832;2022-11-15T01:12:56;8.60;99.90
23114;DHT22;11726;50.122;8.832;2022-11-15T01:15:23;8.70;99.90
23114;DHT22;11726;50.122;8.832;2022-11-15T01:17:49;8.60;99.90
23114;DHT22;11726;50.122;8.832;2022-11-15T01:20:16;8.70;99.90
23114;DHT22;11726;50.122;8.832;2022-11-15T01:22:42;8.70;99.90
23114;DHT22;11726;50.122;8.832;2022-11-15T01:25:09;8.80;99.90
23114;DHT22;11726;50.122;8.832;2022-11-15T01:27:36;8.70;99.90
23114;DHT22;11726;50.122;8.832;2022-11-15T01:30:03;8.70;99.90
23114;DHT22;11726;50.122;8.832;2022-11-15T01:32:30;8.70;99.90
23114;DHT22;11726;50.122;8.832;2022-11-15T01:34:56;8.70;99.90
23114;DHT22;11726;50.122;8.832;2022-11-15T01:37:23;8.70;99.90
23114;DHT22;11726;50.122;8.832;2022-11-15T01:39:50;8.70;99.90
23114;DHT22;11726;50.122;8.832;2022-11-15T01:42:16;8.70;99.90
23114;DHT22;11726;50.122;8.832;2022-11-15T01:44:48;8.70;99.90
23114;DHT22;11726;50.122;8.832;2022-11-15T01:47:15;8.70;99.90
23114;DHT22;11726;50.122;8.832;2022-11-15T01:49:46;8.70;99.90
23114;DHT22;11726;50.122;8.832;2022-11-15T01:52:17;8.80;99.90
23114;DHT22;11726;50.122;8.832;2022-11-15T01:54:44;8.80;99.90
23114;DHT22;11726;50.122;8.832;2022-11-15T01:57:11;8.80;99.90
23114;DHT22;11726;50.122;8.832;2022-11-15T01:59:38;8.80;99.90
23114;DHT22;11726;50.122;8.832;2022-11-15T02:02:06;8.80;99.90
23114;DHT22;11726;50.122;8.832;2022-11-15T02:04:33;8.80;99.90
23114;DHT22;11726;50.122;8.832;2022-11-15T02:07:04;8.90;99.90
23114;DHT22;11726;50.122;8.832;2022-11-15T02:09:31;8.90;99.90
23114;DHT22;11726;50.122;8.832;2022-11-15T02:11:58;8.90;99.90
23114;DHT22;11726;50.122;8.832;2022-11-15T02:14:25;9.00;99.90
23114;DHT22;11726;50.122;8.832;2022-11-15T02:19:35;9.10;99.90
23114;DHT22;11726;50.122;8.832;2022-11-15T02:24:45;9.20;99.90
23114;DHT22;11726;50.122;8.832;2022-11-15T02:32:33;9.40;99.90
23114;DHT22;11726;50.122;8.832;2022-11-15T02:37:34;9.40;99.90
23114;DHT22;11726;50.122;8.832;2022-11-15T02:42:33;9.40;99.90
23114;DHT22;11726;50.122;8.832;2022-11-15T02:45:24;9.40;99.90
23114;DHT22;11726;50.122;8.832;2022-11-15T02:47:54;9.40;99.90
23114;DHT22;11726;50.122;8.832;2022-11-15T02:50:21;9.40;99.90
23114;DHT22;11726;50.122;8.832;2022-11-15T02:52:50;9.50;99.90
23114;DHT22;11726;50.122;8.832;2022-11-15T03:00:30;9.40;99.90
23114;DHT22;11726;50.122;8.832;2022-11-15T03:05:31;9.40;99.90
23114;DHT22;11726;50.122;8.832;2022-11-15T03:08:17;9.50;99.90
23114;DHT22;11726;50.122;8.832;2022-11-15T03:10:50;9.40;99.90
23114;DHT22;11726;50.122;8.832;2022-11-15T03:13:24;9.50;99.90
23114;DHT22;11726;50.122;8.832;2022-11-15T03:16:40;9.40;99.90
23114;DHT22;11726;50.122;8.832;2022-11-15T03:18:40;9.40;99.90
23114;DHT22;11726;50.122;8.832;2022-11-15T03:21:08;9.40;99.90
23114;DHT22;11726;50.122;8.832;2022-11-15T03:23:36;9.40;99.90
23114;DHT22;11726;50.122;8.832;2022-11-15T03:26:03;9.30;99.90
23114;DHT22;11726;50.122;8.832;2022-11-15T03:28:32;9.30;99.90
23114;DHT22;11726;50.122;8.832;2022-11-15T03:31:00;9.30;99.90
23114;DHT22;11726;50.122;8.832;2022-11-15T03:33:49;9.20;99.90
23114;DHT22;11726;50.122;8.832;2022-11-15T03:36:17;9.10;99.90
23114;DHT22;11726;50.122;8.832;2022-11-15T03:38:43;9.00;99.90
23114;DHT22;11726;50.122;8.832;2022-11-15T03:41:16;8.90;99.90
23114;DHT22;11726;50.122;8.832;2022-11-15T03:43:53;8.90;99.90
23114;DHT22;11726;50.122;8.832;2022-11-15T03:46:23;8.80;99.90
23114;DHT22;11726;50.122;8.832;2022-11-15T03:48:52;8.80;99.90
23114;DHT22;11726;50.122;8.832;2022-11-15T03:51:20;8.80;99.90
23114;DHT22;11726;50.122;8.832;2022-11-15T03:53:47;8.80;99.90
23114;DHT22;11726;50.122;8.832;2022-11-15T03:56:13;8.60;99.90
23114;DHT22;11726;50.122;8.832;2022-11-15T03:58:40;8.60;99.90
23114;DHT22;11726;50.122;8.832;2022-11-15T04:01:06;8.50;99.90
23114;DHT22;11726;50.122;8.832;2022-11-15T04:03:33;8.50;99.90
23114;DHT22;11726;50.122;8.832;2022-11-15T04:06:00;8.40;99.90
23114;DHT22;11726;50.122;8.832;2022-11-15T04:08:26;8.40;99.90
23114;DHT22;11726;50.122;8.832;2022-11-15T04:10:53;8.40;99.90
23114;DHT22;11726;50.122;8.832;2022-11-15T04:13:19;8.40;99.90
23114;DHT22;11726;50.122;8.832;2022-11-15T04:15:46;8.40;99.90
23114;DHT22;11726;50.122;8.832;2022-11-15T04:18:12;8.50;99.90
23114;DHT22;11726;50.122;8.832;2022-11-15T04:20:39;8.50;99.90
23114;DHT22;11726;50.122;8.832;2022-11-15T04:23:24;8.50;99.90
23114;DHT22;11726;50.122;8.832;2022-11-15T04:26:10;8.50;99.90
23114;DHT22;11726;50.122;8.832;2022-11-15T04:28:38;8.50;99.90
23114;DHT22;11726;50.122;8.832;2022-11-15T04:31:24;8.50;99.90
23114;DHT22;11726;50.122;8.832;2022-11-15T04:33:51;8.50;99.90
23114;DHT22;11726;50.122;8.832;2022-11-15T04:36:17;8.50;99.90
23114;DHT22;11726;50.122;8.832;2022-11-15T04:39:03;8.60;99.90
23114;DHT22;11726;50.122;8.832;2022-11-15T04:41:29;8.60;99.90
23114;DHT22;11726;50.122;8.832;2022-11-15T04:43:56;8.60;99.90
23114;DHT22;11726;50.122;8.832;2022-11-15T04:46:23;8.60;99.90
23114;DHT22;11726;50.122;8.832;2022-11-15T04:48:50;8.70;99.90
23114;DHT22;11726;50.122;8.832;2022-11-15T04:51:23;8.70;99.90
23114;DHT22;11726;50.122;8.832;2022-11-15T04:53:50;8.70;99.90
23114;DHT22;11726;50.122;8.832;2022-11-15T04:56:17;8.70;99.90
23114;DHT22;11726;50.122;8.832;2022-11-15T04:58:43;8.70;99.90
23114;DHT22;11726;50.122;8.832;2022-11-15T05:01:11;8.70;99.90
23114;DHT22;11726;50.122;8.832;2022-11-15T05:03:38;8.70;99.90
23114;DHT22;11726;50.122;8.832;2022-11-15T05:06:23;8.80;99.90
23114;DHT22;11726;50.122;8.832;2022-11-15T05:08:50;8.80;99.90
23114;DHT22;11726;50.122;8.832;2022-11-15T05:11:16;8.80;99.90
23114;DHT22;11726;50.122;8.832;2022-11-15T05:13:43;8.80;99.90
23114;DHT22;11726;50.122;8.832;2022-11-15T05:16:09;8.80;99.90
23114;DHT22;11726;50.122;8.832;2022-11-15T05:18:36;8.90;99.90
23114;DHT22;11726;50.122;8.832;2022-11-15T05:21:03;8.90;99.90
23114;DHT22;11726;50.122;8.832;2022-11-15T05:23:30;8.90;99.90
23114;DHT22;11726;50.122;8.832;2022-11-15T05:26:01;9.00;99.90
23114;DHT22;11726;50.122;8.832;2022-11-15T05:28:34;9.00;99.90
23114;DHT22;11726;50.122;8.832;2022-11-15T05:31:06;9.00;99.90
23114;DHT22;11726;50.122;8.832;2022-11-15T05:33:33;9.00;99.90
23114;DHT22;11726;50.122;8.832;2022-11-15T05:36:10;9.00;99.90
23114;DHT22;11726;50.122;8.832;2022-11-15T05:38:38;9.00;99.90
23114;DHT22;11726;50.122;8.832;2022-11-15T05:41:05;9.10;99.90
23114;DHT22;11726;50.122;8.832;2022-11-15T05:43:32;9.10;99.90
23114;DHT22;11726;50.122;8.832;2022-11-15T05:46:00;9.10;99.90
23114;DHT22;11726;50.122;8.832;2022-11-15T05:48:27;9.10;99.90
23114;DHT22;11726;50.122;8.832;2022-11-15T05:50:54;9.10;99.90
23114;DHT22;11726;50.122;8.832;2022-11-15T05:53:21;9.10;99.90
23114;DHT22;11726;50.122;8.832;2022-11-15T05:55:48;9.00;99.90
23114;DHT22;11726;50.122;8.832;2022-11-15T05:58:15;9.00;99.90
23114;DHT22;11726;50.122;8.832;2022-11-15T06:00:41;9.00;99.90
23114;DHT22;11726;50.122;8.832;2022-11-15T06:03:09;9.00;99.90
23114;DHT22;11726;50.122;8.832;2022-11-15T06:05:36;9.00;99.90
23114;DHT22;11726;50.122;8.832;2022-11-15T06:08:03;9.00;99.90
23114;DHT22;11726;50.122;8.832;2022-11-15T06:10:30;8.90;99.90
23114;DHT22;11726;50.122;8.832;2022-11-15T06:12:57;9.00;99.90
23114;DHT22;11726;50.122;8.832;2022-11-15T06:15:24;9.00;99.90
23114;DHT22;11726;50.122;8.832;2022-11-15T06:17:51;9.00;99.90
23114;DHT22;11726;50.122;8.832;2022-11-15T06:20:18;9.00;99.90
23114;DHT22;11726;50.122;8.832;2022-11-15T06:22:44;9.00;99.90
23114;DHT22;11726;50.122;8.832;2022-11-15T06:25:11;9.00;99.90
23114;DHT22;11726;50.122;8.832;2022-11-15T06:27:37;9.00;99.90
23114;DHT22;11726;50.122;8.832;2022-11-15T06:30:04;9.00;99.90
23114;DHT22;11726;50.122;8.832;2022-11-15T06:32:31;9.00;99.90
23114;DHT22;11726;50.122;8.832;2022-11-15T06:34:57;9.10;99.90
23114;DHT22;11726;50.122;8.832;2022-11-15T06:37:24;9.00;99.90
23114;DHT22;11726;50.122;8.832;2022-11-15T06:39:51;9.10;99.90
23114;DHT22;11726;50.122;8.832;2022-11-15T06:42:17;9.10;99.90
23114;DHT22;11726;50.122;8.832;2022-11-15T06:44:44;9.20;99.90
23114;DHT22;11726;50.122;8.832;2022-11-15T06:47:10;9.20;99.90
23114;DHT22;11726;50.122;8.832;2022-11-15T06:49:37;9.20;99.90
23114;DHT22;11726;50.122;8.832;2022-11-15T06:52:04;9.20;99.90
23114;DHT22;11726;50.122;8.832;2022-11-15T06:54:30;9.20;99.90
23114;DHT22;11726;50.122;8.832;2022-11-15T06:56:57;9.30;99.90
23114;DHT22;11726;50.122;8.832;2022-11-15T06:59:26;9.30;99.90
23114;DHT22;11726;50.122;8.832;2022-11-15T07:01:53;9.30;99.90
23114;DHT22;11726;50.122;8.832;2022-11-15T07:04:19;9.40;99.90
23114;DHT22;11726;50.122;8.832;2022-11-15T07:06:46;9.40;99.90
23114;DHT22;11726;50.122;8.832;2022-11-15T07:09:14;9.30;99.90
23114;DHT22;11726;50.122;8.832;2022-11-15T07:11:40;9.40;99.90
23114;DHT22;11726;50.122;8.832;2022-11-15T07:14:07;9.40;99.90
23114;DHT22;11726;50.122;8.832;2022-11-15T07:16:33;9.40;99.90
23114;DHT22;11726;50.122;8.832;2022-11-15T07:19:00;9.50;99.90
23114;DHT22;11726;50.122;8.832;2022-11-15T07:21:26;9.50;99.90
23114;DHT22;11726;50.122;8.832;2022-11-15T07:23:53;9.50;99.90
23114;DHT22;11726;50.122;8.832;2022-11-15T07:26:20;9.50;99.90
23114;DHT22;11726;50.122;8.832;2022-11-15T07:28:46;9.60;99.90
23114;DHT22;11726;50.122;8.832;2022-11-15T07:31:13;9.70;99.90
23114;DHT22;11726;50.122;8.832;2022-11-15T07:33:39;9.70;99.90
23114;DHT22;11726;50.122;8.832;2022-11-15T07:36:06;9.70;99.90
23114;DHT22;11726;50.122;8.832;2022-11-15T07:38:33;9.80;99.90
23114;DHT22;11726;50.122;8.832;2022-11-15T07:41:06;9.80;99.90
23114;DHT22;11726;50.122;8.832;2022-11-15T07:43:33;9.80;99.90
23114;DHT22;11726;50.122;8.832;2022-11-15T07:46:04;9.90;99.90
23114;DHT22;11726;50.122;8.832;2022-11-15T07:48:31;9.90;99.90
23114;DHT22;11726;50.122;8.832;2022-11-15T07:51:10;10.00;99.90
23114;DHT22;11726;50.122;8.832;2022-11-15T07:53:40;10.10;99.90
23114;DHT22;11726;50.122;8.832;2022-11-15T07:56:07;10.10;99.90
23114;DHT22;11726;50.122;8.832;2022-11-15T07:58:33;10.10;99.90
23114;DHT22;11726;50.122;8.832;2022-11-15T08:01:03;10.10;99.90
23114;DHT22;11726;50.122;8.832;2022-11-15T08:03:30;10.20;99.90
23114;DHT22;11726;50.122;8.832;2022-11-15T08:05:57;10.30;99.90
23114;DHT22;11726;50.122;8.832;2022-11-15T08:08:23;10.40;99.90
23114;DHT22;11726;50.122;8.832;2022-11-15T08:10:50;10.50;99.90
23114;DHT22;11726;50.122;8.832;2022-11-15T08:13:17;10.50;99.90
23114;DHT22;11726;50.122;8.832;2022-11-15T08:15:44;10.70;99.90
23114;DHT22;11726;50.122;8.832;2022-11-15T08:18:12;10.80;99.90
23114;DHT22;11726;50.122;8.832;2022-11-15T08:20:38;10.80;99.90
23114;DHT22;11726;50.122;8.832;2022-11-15T08:23:05;10.90;99.90
23114;DHT22;11726;50.122;8.832;2022-11-15T08:25:33;10.90;99.90
23114;DHT22;11726;50.122;8.832;2022-11-15T08:28:01;11.00;99.90
23114;DHT22;11726;50.122;8.832;2022-11-15T08:30:28;11.00;99.90
23114;DHT22;11726;50.122;8.832;2022-11-15T08:32:56;11.10;99.90
23114;DHT22;11726;50.122;8.832;2022-11-15T08:35:23;11.10;99.90
23114;DHT22;11726;50.122;8.832;2022-11-15T08:37:54;11.10;99.90
23114;DHT22;11726;50.122;8.832;2022-11-15T08:40:21;11.20;99.90
23114;DHT22;11726;50.122;8.832;2022-11-15T08:42:49;11.20;99.90
23114;DHT22;11726;50.122;8.832;2022-11-15T08:45:15;11.20;99.90
23114;DHT22;11726;50.122;8.832;2022-11-15T08:47:42;11.30;99.90
23114;DHT22;11726;50.122;8.832;2022-11-15T08:50:08;11.30;99.90
23114;DHT22;11726;50.122;8.832;2022-11-15T08:52:35;11.30;99.90
23114;DHT22;11726;50.122;8.832;2022-11-15T08:55:02;11.30;99.90
23114;DHT22;11726;50.122;8.832;2022-11-15T08:57:29;11.40;99.90
23114;DHT22;11726;50.122;8.832;2022-11-15T08:59:59;11.40;99.90
23114;DHT22;11726;50.122;8.832;2022-11-15T09:02:25;11.40;99.90
23114;DHT22;11726;50.122;8.832;2022-11-15T09:04:52;11.50;99.90
23114;DHT22;11726;50.122;8.832;2022-11-15T09:07:18;11.50;99.90
23114;DHT22;11726;50.122;8.832;2022-11-15T09:09:45;11.60;99.90
23114;DHT22;11726;50.122;8.832;2022-11-15T09:12:11;11.70;99.90
23114;DHT22;11726;50.122;8.832;2022-11-15T09:14:38;11.70;99.90
23114;DHT22;11726;50.122;8.832;2022-11-15T09:17:07;11.80;99.90
23114;DHT22;11726;50.122;8.832;2022-11-15T09:19:34;11.80;99.90
23114;DHT22;11726;50.122;8.832;2022-11-15T09:22:01;11.80;99.90
23114;DHT22;11726;50.122;8.832;2022-11-15T09:24:27;11.90;99.90
23114;DHT22;11726;50.122;8.832;2022-11-15T09:26:54;11.90;99.90
23114;DHT22;11726;50.122;8.832;2022-11-15T09:29:20;12.00;99.90
23114;DHT22;11726;50.122;8.832;2022-11-15T09:31:47;12.00;99.90
23114;DHT22;11726;50.122;8.832;2022-11-15T09:34:13;12.00;99.90
23114;DHT22;11726;50.122;8.832;2022-11-15T09:36:40;12.00;99.90
23114;DHT22;11726;50.122;8.832;2022-11-15T09:39:06;12.10;99.90
23114;DHT22;11726;50.122;8.832;2022-11-15T09:49:32;12.50;99.90
23114;DHT22;11726;50.122;8.832;2022-11-15T09:51:59;12.40;99.90
23114;DHT22;11726;50.122;8.832;2022-11-15T09:57:13;12.30;99.90
23114;DHT22;11726;50.122;8.832;2022-11-15T10:05:02;12.30;99.90
23114;DHT22;11726;50.122;8.832;2022-11-15T10:10:17;12.50;99.90
23114;DHT22;11726;50.122;8.832;2022-11-15T10:12:47;12.50;99.90
23114;DHT22;11726;50.122;8.832;2022-11-15T10:15:16;12.50;99.90
23114;DHT22;11726;50.122;8.832;2022-11-15T10:27:37;12.70;99.90
23114;DHT22;11726;50.122;8.832;2022-11-15T10:30:10;12.80;99.90
23114;DHT22;11726;50.122;8.832;2022-11-15T10:32:37;12.80;99.90
23114;DHT22;11726;50.122;8.832;2022-11-15T10:35:26;12.90;99.90
23114;DHT22;11726;50.122;8.832;2022-11-15T10:37:50;13.00;99.90
23114;DHT22;11726;50.122;8.832;2022-11-15T10:40:18;13.00;99.90
23114;DHT22;11726;50.122;8.832;2022-11-15T10:42:45;13.10;99.90
23114;DHT22;11726;50.122;8.832;2022-11-15T10:45:33;13.10;99.90
23114;DHT22;11726;50.122;8.832;2022-11-15T10:50:42;13.20;99.90
23114;DHT22;11726;50.122;8.832;2022-11-15T10:53:51;13.20;99.90
23114;DHT22;11726;50.122;8.832;2022-11-15T10:56:02;13.20;99.90
23114;DHT22;11726;50.122;8.832;2022-11-15T11:03:36;13.40;99.90
23114;DHT22;11726;50.122;8.832;2022-11-15T11:06:10;13.40;99.90
23114;DHT22;11726;50.122;8.832;2022-11-15T11:08:37;13.40;99.90
23114;DHT22;11726;50.122;8.832;2022-11-15T11:11:04;13.40;99.90
23114;DHT22;11726;50.122;8.832;2022-11-15T11:18:47;13.40;99.90
23114;DHT22;11726;50.122;8.832;2022-11-15T11:21:51;13.40;99.90
23114;DHT22;11726;50.122;8.832;2022-11-15T11:26:57;13.50;99.90
23114;DHT22;11726;50.122;8.832;2022-11-15T11:29:47;13.50;99.90
23114;DHT22;11726;50.122;8.832;2022-11-15T11:35:02;13.70;99.90
23114;DHT22;11726;50.122;8.832;2022-11-15T11:37:47;13.70;99.90
23114;DHT22;11726;50.122;8.832;2022-11-15T11:45:51;13.80;99.90
23114;DHT22;11726;50.122;8.832;2022-11-15T11:48:33;13.80;99.90
23114;DHT22;11726;50.122;8.832;2022-11-15T11:51:10;14.00;99.90
23114;DHT22;11726;50.122;8.832;2022-11-15T11:56:16;14.10;99.90
23114;DHT22;11726;50.122;8.832;2022-11-15T11:58:44;14.00;99.90
23114;DHT22;11726;50.122;8.832;2022-11-15T12:01:15;13.90;99.90
23114;DHT22;11726;50.122;8.832;2022-11-15T12:06:20;14.00;99.90
23114;DHT22;11726;50.122;8.832;2022-11-15T12:11:47;14.10;99.90
23114;DHT22;11726;50.122;8.832;2022-11-15T12:14:22;14.10;99.90
23114;DHT22;11726;50.122;8.832;2022-11-15T12:16:50;14.10;99.90
23114;DHT22;11726;50.122;8.832;2022-11-15T12:19:17;14.10;99.90
23114;DHT22;11726;50.122;8.832;2022-11-15T12:21:45;14.10;99.90
23114;DHT22;11726;50.122;8.832;2022-11-15T12:24:14;14.20;99.90
23114;DHT22;11726;50.122;8.832;2022-11-15T12:26:48;14.50;99.90
23114;DHT22;11726;50.122;8.832;2022-11-15T12:29:18;14.70;99.90
23114;DHT22;11726;50.122;8.832;2022-11-15T12:31:47;14.60;99.90
23114;DHT22;11726;50.122;8.832;2022-11-15T12:36:45;14.50;99.90
23114;DHT22;11726;50.122;8.832;2022-11-15T12:39:12;14.60;99.90
23114;DHT22;11726;50.122;8.832;2022-11-15T12:41:42;14.50;99.90
23114;DHT22;11726;50.122;8.832;2022-11-15T13:02:19;14.30;99.90
23114;DHT22;11726;50.122;8.832;2022-11-15T13:04:47;14.30;99.90
23114;DHT22;11726;50.122;8.832;2022-11-15T13:10:00;14.20;99.90
23114;DHT22;11726;50.122;8.832;2022-11-15T13:22:19;14.40;99.90
23114;DHT22;11726;50.122;8.832;2022-11-15T13:25:04;14.40;99.90
23114;DHT22;11726;50.122;8.832;2022-11-15T13:27:40;14.50;99.90
23114;DHT22;11726;50.122;8.832;2022-11-15T13:30:24;14.40;99.90
23114;DHT22;11726;50.122;8.832;2022-11-15T13:32:50;14.30;99.90
23114;DHT22;11726;50.122;8.832;2022-11-15T13:35:22;14.30;99.90
23114;DHT22;11726;50.122;8.832;2022-11-15T13:37:49;14.20;99.90
23114;DHT22;11726;50.122;8.832;2022-11-15T13:40:20;14.30;99.90
23114;DHT22;11726;50.122;8.832;2022-11-15T13:42:48;14.30;99.90
23114;DHT22;11726;50.122;8.832;2022-11-15T13:45:15;14.20;99.90
23114;DHT22;11726;50.122;8.832;2022-11-15T13:47:43;14.30;99.90
23114;DHT22;11726;50.122;8.832;2022-11-15T13:50:10;14.30;99.90
23114;DHT22;11726;50.122;8.832;2022-11-15T13:52:38;14.30;99.90
23114;DHT22;11726;50.122;8.832;2022-11-15T13:55:12;14.30;99.90
23114;DHT22;11726;50.122;8.832;2022-11-15T13:57:41;14.20;99.90
23114;DHT22;11726;50.122;8.832;2022-11-15T14:02:54;14.10;99.90
23114;DHT22;11726;50.122;8.832;2022-11-15T14:05:22;14.10;99.90
23114;DHT22;11726;50.122;8.832;2022-11-15T14:07:57;14.10;99.90
23114;DHT22;11726;50.122;8.832;2022-11-15T14:10:45;14.10;99.90
23114;DHT22;11726;50.122;8.832;2022-11-15T14:13:26;14.10;99.90
23114;DHT22;11726;50.122;8.832;2022-11-15T14:15:53;14.00;99.90
23114;DHT22;11726;50.122;8.832;2022-11-15T14:18:53;14.00;99.90
23114;DHT22;11726;50.122;8.832;2022-11-15T14:21:12;13.90;99.90
23114;DHT22;11726;50.122;8.832;2022-11-15T14:23:39;13.90;99.90
23114;DHT22;11726;50.122;8.832;2022-11-15T14:26:10;13.90;99.90
23114;DHT22;11726;50.122;8.832;2022-11-15T14:28:37;13.90;99.90
23114;DHT22;11726;50.122;8.832;2022-11-15T14:31:10;13.90;99.90
23114;DHT22;11726;50.122;8.832;2022-11-15T14:33:38;13.80;99.90
23114;DHT22;11726;50.122;8.832;2022-11-15T14:36:12;13.80;99.90
23114;DHT22;11726;50.122;8.832;2022-11-15T14:38:40;13.80;99.90
23114;DHT22;11726;50.122;8.832;2022-11-15T14:41:10;13.80;99.90
23114;DHT22;11726;50.122;8.832;2022-11-15T14:43:43;13.70;99.90
23114;DHT22;11726;50.122;8.832;2022-11-15T14:46:09;13.70;99.90
23114;DHT22;11726;50.122;8.832;2022-11-15T14:48:36;13.70;99.90
23114;DHT22;11726;50.122;8.832;2022-11-15T14:51:02;13.60;99.90
23114;DHT22;11726;50.122;8.832;2022-11-15T14:53:29;13.60;99.90
23114;DHT22;11726;50.122;8.832;2022-11-15T14:55:55;13.60;99.90
23114;DHT22;11726;50.122;8.832;2022-11-15T14:58:22;13.60;99.90
23114;DHT22;11726;50.122;8.832;2022-11-15T15:00:49;13.60;99.90
23114;DHT22;11726;50.122;8.832;2022-11-15T15:03:16;13.60;99.90
23114;DHT22;11726;50.122;8.832;2022-11-15T15:05:43;13.50;99.90
23114;DHT22;11726;50.122;8.832;2022-11-15T15:08:10;13.60;99.90
23114;DHT22;11726;50.122;8.832;2022-11-15T15:10:38;13.50;99.90
23114;DHT22;11726;50.122;8.832;2022-11-15T15:15:43;13.50;99.90
23114;DHT22;11726;50.122;8.832;2022-11-15T15:18:10;13.40;99.90
23114;DHT22;11726;50.122;8.832;2022-11-15T15:20:38;13.40;99.90
23114;DHT22;11726;50.122;8.832;2022-11-15T15:23:08;13.40;99.90
23114;DHT22;11726;50.122;8.832;2022-11-15T15:25:36;13.40;99.90
23114;DHT22;11726;50.122;8.832;2022-11-15T15:28:02;13.30;99.90
23114;DHT22;11726;50.122;8.832;2022-11-15T15:30:29;13.30;99.90
23114;DHT22;11726;50.122;8.832;2022-11-15T15:32:56;13.30;99.90
23114;DHT22;11726;50.122;8.832;2022-11-15T15:35:23;13.30;99.90
23114;DHT22;11726;50.122;8.832;2022-11-15T15:37:51;13.30;99.90
23114;DHT22;11726;50.122;8.832;2022-11-15T15:40:20;13.20;99.90
23114;DHT22;11726;50.122;8.832;2022-11-15T15:42:47;13.20;99.90
23114;DHT22;11726;50.122;8.832;2022-11-15T15:45:14;13.10;99.90
23114;DHT22;11726;50.122;8.832;2022-11-15T15:47:41;13.10;99.90
23114;DHT22;11726;50.122;8.832;2022-11-15T15:52:40;13.00;99.90
23114;DHT22;11726;50.122;8.832;2022-11-15T15:55:07;13.00;99.90
23114;DHT22;11726;50.122;8.832;2022-11-15T15:57:34;13.00;99.90
23114;DHT22;11726;50.122;8.832;2022-11-15T16:00:00;13.00;99.90
23114;DHT22;11726;50.122;8.832;2022-11-15T16:02:27;13.00;99.90
23114;DHT22;11726;50.122;8.832;2022-11-15T16:04:54;13.00;99.90
23114;DHT22;11726;50.122;8.832;2022-11-15T16:07:21;13.10;99.90
23114;DHT22;11726;50.122;8.832;2022-11-15T16:09:50;13.00;99.90
23114;DHT22;11726;50.122;8.832;2022-11-15T16:12:29;13.00;99.90
23114;DHT22;11726;50.122;8.832;2022-11-15T16:14:56;13.00;99.90
23114;DHT22;11726;50.122;8.832;2022-11-15T16:17:24;13.10;99.90
23114;DHT22;11726;50.122;8.832;2022-11-15T16:19:58;13.10;99.90
23114;DHT22;11726;50.122;8.832;2022-11-15T16:22:25;13.10;99.90
23114;DHT22;11726;50.122;8.832;2022-11-15T16:24:51;13.10;99.90
23114;DHT22;11726;50.122;8.832;2022-11-15T16:27:18;13.00;99.90
23114;DHT22;11726;50.122;8.832;2022-11-15T16:29:45;13.00;99.90
23114;DHT22;11726;50.122;8.832;2022-11-15T16:32:12;13.10;99.90
23114;DHT22;11726;50.122;8.832;2022-11-15T16:34:39;13.10;99.90
23114;DHT22;11726;50.122;8.832;2022-11-15T16:37:22;13.00;99.90
23114;DHT22;11726;50.122;8.832;2022-11-15T16:39:49;13.10;99.90
23114;DHT22;11726;50.122;8.832;2022-11-15T16:42:16;13.00;99.90
23114;DHT22;11726;50.122;8.832;2022-11-15T16:44:42;13.10;99.90
23114;DHT22;11726;50.122;8.832;2022-11-15T16:47:17;13.00;99.90
23114;DHT22;11726;50.122;8.832;2022-11-15T16:49:45;13.00;99.90
23114;DHT22;11726;50.122;8.832;2022-11-15T16:52:12;12.90;99.90
23114;DHT22;11726;50.122;8.832;2022-11-15T16:54:45;12.80;99.90
23114;DHT22;11726;50.122;8.832;2022-11-15T16:57:12;12.80;99.90
23114;DHT22;11726;50.122;8.832;2022-11-15T16:59:38;12.80;99.90
23114;DHT22;11726;50.122;8.832;2022-11-15T17:02:09;12.80;99.90
23114;DHT22;11726;50.122;8.832;2022-11-15T17:04:37;12.80;99.90
23114;DHT22;11726;50.122;8.832;2022-11-15T17:07:03;12.70;99.90
23114;DHT22;11726;50.122;8.832;2022-11-15T17:09:30;12.70;99.90
23114;DHT22;11726;50.122;8.832;2022-11-15T17:11:58;12.70;99.90
23114;DHT22;11726;50.122;8.832;2022-11-15T17:14:24;12.70;99.90
23114;DHT22;11726;50.122;8.832;2022-11-15T17:16:51;12.70;99.90
23114;DHT22;11726;50.122;8.832;2022-11-15T17:19:20;12.70;99.90
23114;DHT22;11726;50.122;8.832;2022-11-15T17:21:46;12.60;99.90
23114;DHT22;11726;50.122;8.832;2022-11-15T17:24:15;12.60;99.90
23114;DHT22;11726;50.122;8.832;2022-11-15T17:26:42;12.60;99.90
23114;DHT22;11726;50.122;8.832;2022-11-15T17:29:09;12.50;99.90
23114;DHT22;11726;50.122;8.832;2022-11-15T17:31:36;12.50;99.90
23114;DHT22;11726;50.122;8.832;2022-11-15T17:34:04;12.50;99.90
23114;DHT22;11726;50.122;8.832;2022-11-15T17:36:31;12.50;99.90
23114;DHT22;11726;50.122;8.832;2022-11-15T17:38:58;12.40;99.90
23114;DHT22;11726;50.122;8.832;2022-11-15T17:41:26;12.40;99.90
23114;DHT22;11726;50.122;8.832;2022-11-15T17:43:54;12.40;99.90
23114;DHT22;11726;50.122;8.832;2022-11-15T17:46:21;12.40;99.90
23114;DHT22;11726;50.122;8.832;2022-11-15T17:48:47;12.30;99.90
23114;DHT22;11726;50.122;8.832;2022-11-15T17:51:15;12.30;99.90
23114;DHT22;11726;50.122;8.832;2022-11-15T17:53:43;12.30;99.90